Time;durP1;ratioP1;P1;durP2;ratioP2;P2;SDS_P1;SDS_P2;PMS_P1;PMS_P2;Temp;Humidity;BMP_temperature;BMP_pressure;BME280_temperature;BME280_humidity;BME280_pressure;Samples;Min_cycle;Max_cycle;Signal;HPM_P1;HPM_P2
2022/03/15 00:01:50;;;;;;;5.80;3.17;;;;;;;;;;5029538;28;20595;-86
2022/03/15 00:04:55;;;;;;;7.07;3.40;;;;;;;;;;5019248;28;20583;-85
2022/03/15 00:07:59;;;;;;;4.33;2.83;;;;;;;;;;5017942;28;20998;-85
2022/03/15 00:11:05;;;;;;;7.87;3.30;;;;;;;;;;5021505;28;20596;-85
2022/03/15 00:14:14;;;;;;;5.50;3.23;;;;;;;;;;5009753;28;20599;-85
2022/03/15 00:17:20;;;;;;;5.47;3.37;;;;;;;;;;5009826;28;20940;-86
2022/03/15 00:20:25;;;;;;;6.03;3.60;;;;;;;;;;5044198;28;20595;-85
2022/03/15 00:23:31;;;;;;;10.03;3.70;;;;;;;;;;5032824;28;20594;-86
2022/03/15 00:26:35;;;;;;;7.13;3.73;;;;;;;;;;5033557;28;21175;-85
2022/03/15 00:29:46;;;;;;;7.70;3.33;;;;;;;;;;5022264;28;20587;-85
2022/03/15 00:32:51;;;;;;;6.40;3.00;;;;;;;;;;5033345;28;20554;-85
2022/03/15 00:35:56;;;;;;;6.97;3.40;;;;;;;;;;5032915;28;20634;-85
2022/03/15 00:39:01;;;;;;;4.97;3.33;;;;;;;;;;5033269;28;20587;-86
2022/03/15 00:42:05;;;;;;;5.63;3.77;;;;;;;;;;5033182;28;20547;-86
2022/03/15 00:45:09;;;;;;;5.20;3.40;;;;;;;;;;5044329;28;20610;-85
2022/03/15 00:48:13;;;;;;;6.50;3.30;;;;;;;;;;5021455;28;20606;-86
2022/03/15 00:51:17;;;;;;;5.87;3.63;;;;;;;;;;5032733;28;20594;-86
2022/03/15 00:54:21;;;;;;;6.10;3.80;;;;;;;;;;5033009;28;20538;-85
2022/03/15 00:57:27;;;;;;;4.97;2.93;;;;;;;;;;5022624;28;20578;-85
2022/03/15 01:00:32;;;;;;;4.97;3.33;;;;;;;;;;5013506;28;20555;-85
2022/03/15 01:03:36;;;;;;;6.07;3.60;;;;;;;;;;5036584;28;20544;-85
2022/03/15 01:06:42;;;;;;;5.87;3.57;;;;;;;;;;5013253;28;20623;-85
2022/03/15 01:09:46;;;;;;;6.97;4.00;;;;;;;;;;5013275;28;20532;-85
2022/03/15 01:12:51;;;;;;;6.40;4.37;;;;;;;;;;5007278;28;21167;-85
2022/03/15 01:15:55;;;;;;;8.60;4.67;;;;;;;;;;5022037;28;20649;-86
2022/03/15 01:19:00;;;;;;;7.90;4.83;;;;;;;;;;5022315;28;20535;-85
2022/03/15 01:22:04;;;;;;;7.97;4.57;;;;;;;;;;5021465;28;20598;-85
2022/03/15 01:25:09;;;;;;;8.37;4.80;;;;;;;;;;5001973;28;20630;-86
2022/03/15 01:28:15;;;;;;;9.33;4.23;;;;;;;;;;5013654;28;20587;-85
2022/03/15 01:31:19;;;;;;;7.77;4.60;;;;;;;;;;5011983;28;20560;-85
2022/03/15 01:34:25;;;;;;;10.50;5.87;;;;;;;;;;5030106;28;20591;-86
2022/03/15 01:37:34;;;;;;;8.23;4.80;;;;;;;;;;5021968;28;20547;-85
2022/03/15 01:40:46;;;;;;;11.50;4.50;;;;;;;;;;5025706;28;20587;-85
2022/03/15 01:43:50;;;;;;;7.97;4.63;;;;;;;;;;5021015;28;20594;-85
2022/03/15 01:46:55;;;;;;;7.70;4.50;;;;;;;;;;5032556;28;21180;-84
2022/03/15 01:49:59;;;;;;;9.93;4.50;;;;;;;;;;5020191;28;20587;-85
2022/03/15 01:53:04;;;;;;;10.83;5.27;;;;;;;;;;5043380;28;20582;-85
2022/03/15 01:56:08;;;;;;;7.17;4.70;;;;;;;;;;5031825;28;20626;-85
2022/03/15 01:59:16;;;;;;;7.43;5.30;;;;;;;;;;5020706;28;20527;-85
2022/03/15 02:02:20;;;;;;;8.30;5.13;;;;;;;;;;5021126;28;20543;-85
2022/03/15 02:05:25;;;;;;;6.40;5.50;;;;;;;;;;5012349;28;20627;-86
2022/03/15 02:08:30;;;;;;;7.10;5.00;;;;;;;;;;5011919;28;21161;-85
2022/03/15 02:11:35;;;;;;;13.00;5.80;;;;;;;;;;5030447;28;20590;-85
2022/03/15 02:14:39;;;;;;;5.73;4.73;;;;;;;;;;5019831;28;20598;-85
2022/03/15 02:17:43;;;;;;;9.07;5.37;;;;;;;;;;5030940;28;20610;-86
2022/03/15 02:20:47;;;;;;;9.20;5.60;;;;;;;;;;5017526;28;20578;-85
2022/03/15 02:23:52;;;;;;;7.87;5.27;;;;;;;;;;5020547;28;20576;-85
2022/03/15 02:26:56;;;;;;;11.50;6.17;;;;;;;;;;5020207;28;20642;-85
2022/03/15 02:30:00;;;;;;;9.17;6.27;;;;;;;;;;5019998;28;20931;-85
2022/03/15 02:33:04;;;;;;;9.03;6.17;;;;;;;;;;5020108;28;20547;-85
2022/03/15 02:36:08;;;;;;;12.00;6.20;;;;;;;;;;5019797;28;20642;-85
2022/03/15 02:39:13;;;;;;;9.93;5.83;;;;;;;;;;5007462;28;20578;-85
2022/03/15 02:42:18;;;;;;;9.77;6.17;;;;;;;;;;5030627;28;20543;-85
2022/03/15 02:45:22;;;;;;;9.47;6.10;;;;;;;;;;5020106;28;20618;-85
2022/03/15 02:48:26;;;;;;;7.70;5.50;;;;;;;;;;5042509;28;20586;-85
2022/03/15 02:51:31;;;;;;;7.93;5.70;;;;;;;;;;5019534;28;20591;-85
2022/03/15 02:54:41;;;;;;;9.97;5.53;;;;;;;;;;5019264;28;20599;-85
2022/03/15 02:57:44;;;;;;;11.60;5.63;;;;;;;;;;5019908;28;20875;-85
2022/03/15 03:00:49;;;;;;;8.03;4.90;;;;;;;;;;5019497;28;21144;-85
2022/03/15 03:03:53;;;;;;;8.00;4.93;;;;;;;;;;5030092;28;20590;-86
2022/03/15 03:06:59;;;;;;;9.93;5.43;;;;;;;;;;5030273;28;20614;-86
2022/03/15 03:10:05;;;;;;;8.67;5.37;;;;;;;;;;5029975;28;21192;-85
2022/03/15 03:13:11;;;;;;;9.00;4.87;;;;;;;;;;5041240;28;20586;-85
2022/03/15 03:16:15;;;;;;;16.03;5.57;;;;;;;;;;5018356;28;20646;-85
2022/03/15 03:19:19;;;;;;;10.03;5.90;;;;;;;;;;4999619;28;21074;-85
2022/03/15 03:22:23;;;;;;;8.53;5.10;;;;;;;;;;5010626;28;20544;-85
2022/03/15 03:25:30;;;;;;;10.20;4.90;;;;;;;;;;5020055;28;20657;-85
2022/03/15 03:28:38;;;;;;;8.10;5.03;;;;;;;;;;4999119;28;20583;-85
2022/03/15 03:31:44;;;;;;;10.43;5.60;;;;;;;;;;5029797;28;20618;-85
2022/03/15 03:34:48;;;;;;;9.27;5.40;;;;;;;;;;5018803;28;20547;-85
2022/03/15 03:37:52;;;;;;;7.90;5.33;;;;;;;;;;5016025;28;20603;-85
2022/03/15 03:40:57;;;;;;;6.60;5.13;;;;;;;;;;5021776;28;20603;-85
2022/03/15 03:44:02;;;;;;;8.03;5.37;;;;;;;;;;4999174;28;20599;-85
2022/03/15 03:47:06;;;;;;;8.13;5.67;;;;;;;;;;5007181;28;20642;-85
2022/03/15 03:50:11;;;;;;;8.37;5.30;;;;;;;;;;5018713;28;20630;-85
2022/03/15 03:53:16;;;;;;;8.37;5.77;;;;;;;;;;5032394;28;20551;-85
2022/03/15 03:56:20;;;;;;;8.77;5.70;;;;;;;;;;5022204;28;20646;-85
2022/03/15 03:59:24;;;;;;;8.77;5.70;;;;;;;;;;5034312;28;20535;-86
2022/03/15 04:02:28;;;;;;;11.43;5.83;;;;;;;;;;5022387;28;20931;-86
2022/03/15 04:05:39;;;;;;;9.73;5.57;;;;;;;;;;5033930;28;20646;-85
2022/03/15 04:08:46;;;;;;;9.27;5.50;;;;;;;;;;5003064;28;20588;-85
2022/03/15 04:11:54;;;;;;;11.07;5.90;;;;;;;;;;5026509;28;20539;-85
2022/03/15 04:14:59;;;;;;;9.37;5.77;;;;;;;;;;5044778;28;20626;-85
2022/03/15 04:18:03;;;;;;;11.07;6.40;;;;;;;;;;5022007;28;20618;-85
2022/03/15 04:21:08;;;;;;;11.73;6.63;;;;;;;;;;5045096;28;20535;-85
2022/03/15 04:24:14;;;;;;;8.03;5.60;;;;;;;;;;5022417;28;20555;-85
2022/03/15 04:27:18;;;;;;;10.40;5.47;;;;;;;;;;5033106;28;21160;-85
2022/03/15 04:30:24;;;;;;;12.00;5.37;;;;;;;;;;5033083;28;20642;-86
2022/03/15 04:33:28;;;;;;;7.53;6.20;;;;;;;;;;5022190;28;20594;-85
2022/03/15 04:36:35;;;;;;;12.53;5.80;;;;;;;;;;5021771;28;20641;-85
2022/03/15 04:39:39;;;;;;;9.70;6.03;;;;;;;;;;5044064;28;20583;-85
2022/03/15 04:42:43;;;;;;;9.97;5.87;;;;;;;;;;5032888;28;20586;-85
2022/03/15 04:45:49;;;;;;;10.00;5.83;;;;;;;;;;5044578;28;20958;-85
2022/03/15 04:48:54;;;;;;;11.17;6.03;;;;;;;;;;5022050;28;20654;-85
2022/03/15 04:51:58;;;;;;;18.87;6.33;;;;;;;;;;5032693;28;20622;-85
2022/03/15 04:55:06;;;;;;;9.67;5.87;;;;;;;;;;5045543;28;20602;-85
2022/03/15 04:58:10;;;;;;;10.73;6.60;;;;;;;;;;5033129;28;20582;-85
2022/03/15 05:01:14;;;;;;;8.93;6.07;;;;;;;;;;5021226;28;20586;-85
2022/03/15 05:04:18;;;;;;;9.67;5.37;;;;;;;;;;5020422;28;20930;-86
2022/03/15 05:07:22;;;;;;;10.83;5.70;;;;;;;;;;5021663;28;20594;-86
2022/03/15 05:13:49;;;;;;;9.50;6.27;;;;;;;;;;5032809;28;20590;-85
2022/03/15 05:16:53;;;;;;;8.70;5.43;;;;;;;;;;5020979;28;20646;-85
2022/03/15 05:19:58;;;;;;;10.47;5.97;;;;;;;;;;5021340;28;20590;-85
2022/03/15 05:23:02;;;;;;;10.27;6.17;;;;;;;;;;5032924;28;20539;-85
2022/03/15 05:26:07;;;;;;;12.03;5.87;;;;;;;;;;5043461;28;20646;-85
2022/03/15 05:29:12;;;;;;;9.10;5.57;;;;;;;;;;5021254;28;20650;-85
2022/03/15 05:32:16;;;;;;;9.73;6.97;;;;;;;;;;5032002;28;20539;-85
2022/03/15 05:35:20;;;;;;;10.83;6.83;;;;;;;;;;5031595;28;20638;-84
2022/03/15 05:38:24;;;;;;;13.20;7.27;;;;;;;;;;5031835;28;20602;-85
2022/03/15 05:41:28;;;;;;;12.03;7.37;;;;;;;;;;5031336;28;20590;-85
2022/03/15 05:44:32;;;;;;;13.00;7.67;;;;;;;;;;5020955;28;20543;-85
2022/03/15 05:47:36;;;;;;;15.77;7.70;;;;;;;;;;5018007;28;20611;-86
2022/03/15 05:50:43;;;;;;;13.57;7.90;;;;;;;;;;5031438;28;20630;-86
2022/03/15 05:53:48;;;;;;;11.23;7.83;;;;;;;;;;5016258;28;20591;-86
2022/03/15 05:56:52;;;;;;;15.73;8.80;;;;;;;;;;5042332;28;20658;-86
2022/03/15 05:59:56;;;;;;;12.70;8.50;;;;;;;;;;5021122;28;20551;-85
2022/03/15 06:03:00;;;;;;;17.20;7.63;;;;;;;;;;5031889;28;20586;-86
2022/03/15 06:06:06;;;;;;;10.60;7.27;;;;;;;;;;5031268;28;20642;-87
2022/03/15 06:09:10;;;;;;;12.03;6.70;;;;;;;;;;5020177;28;20630;-87
2022/03/15 06:12:16;;;;;;;10.73;7.00;;;;;;;;;;5019977;28;20591;-87
2022/03/15 06:15:20;;;;;;;12.00;7.97;;;;;;;;;;5042485;28;20958;-87
2022/03/15 06:18:24;;;;;;;12.97;8.53;;;;;;;;;;5019377;28;20618;-87
2022/03/15 06:21:27;;;;;;;14.80;8.73;;;;;;;;;;5031161;28;20535;-87
2022/03/15 06:24:32;;;;;;;13.67;7.50;;;;;;;;;;5030900;28;20587;-87
2022/03/15 06:27:36;;;;;;;14.53;7.17;;;;;;;;;;5031384;28;20539;-87
2022/03/15 06:30:41;;;;;;;11.23;6.60;;;;;;;;;;5019077;28;20638;-86
2022/03/15 06:33:47;;;;;;;14.90;7.33;;;;;;;;;;5020149;28;20595;-86
2022/03/15 06:36:52;;;;;;;9.80;6.30;;;;;;;;;;5000596;28;20619;-86
2022/03/15 06:39:56;;;;;;;13.70;9.07;;;;;;;;;;5031120;28;20570;-85
2022/03/15 06:43:02;;;;;;;14.50;7.53;;;;;;;;;;5031373;28;20587;-87
2022/03/15 06:46:07;;;;;;;11.67;7.23;;;;;;;;;;5054825;28;20610;-85
2022/03/15 06:49:12;;;;;;;14.97;7.37;;;;;;;;;;5020821;28;20591;-86
2022/03/15 06:52:16;;;;;;;19.90;8.03;;;;;;;;;;5032133;28;20582;-85
2022/03/15 06:55:20;;;;;;;14.40;7.53;;;;;;;;;;5019404;28;20649;-86
2022/03/15 06:58:24;;;;;;;14.53;8.07;;;;;;;;;;4975230;22;20686;-87
2022/03/15 07:01:29;;;;;;;16.67;8.73;;;;;;;;;;4951947;29;20579;-86
2022/03/15 07:04:34;;;;;;;18.67;8.40;;;;;;;;;;4979245;28;20620;-86
2022/03/15 07:07:38;;;;;;;30.83;11.67;;;;;;;;;;4969345;28;20615;-87
2022/03/15 07:10:43;;;;;;;22.23;9.33;;;;;;;;;;5027591;28;20625;-87
2022/03/15 07:13:47;;;;;;;14.23;8.57;;;;;;;;;;5046894;28;20183;-87
2022/03/15 07:16:54;;;;;;;19.27;12.17;;;;;;;;;;5038941;28;20219;-87
2022/03/15 07:19:59;;;;;;;18.23;10.50;;;;;;;;;;5050148;28;20617;-87
2022/03/15 07:23:04;;;;;;;20.93;10.93;;;;;;;;;;5061432;28;20900;-87
2022/03/15 07:26:08;;;;;;;13.20;9.60;;;;;;;;;;5038350;28;20195;-87
2022/03/15 07:29:12;;;;;;;17.70;11.30;;;;;;;;;;5053989;28;20199;-87
2022/03/15 07:32:16;;;;;;;22.47;10.20;;;;;;;;;;5030207;28;20181;-87
2022/03/15 07:35:20;;;;;;;16.47;10.10;;;;;;;;;;5029982;28;20176;-87
2022/03/15 07:38:24;;;;;;;15.37;9.47;;;;;;;;;;5029963;28;20218;-87
2022/03/15 07:41:28;;;;;;;17.10;10.37;;;;;;;;;;5020936;28;20619;-87
2022/03/15 07:44:32;;;;;;;15.50;9.27;;;;;;;;;;5031269;28;20181;-86
2022/03/15 07:47:37;;;;;;;13.20;9.00;;;;;;;;;;5019788;28;20215;-87
2022/03/15 07:50:41;;;;;;;20.23;14.00;;;;;;;;;;5030949;28;20223;-87
2022/03/15 07:53:46;;;;;;;14.63;10.17;;;;;;;;;;5030577;28;20172;-87
2022/03/15 07:56:50;;;;;;;14.17;10.30;;;;;;;;;;5018387;28;20226;-87
2022/03/15 07:59:55;;;;;;;14.17;9.43;;;;;;;;;;5030179;28;20168;-87
2022/03/15 08:02:59;;;;;;;12.87;9.37;;;;;;;;;;5029896;28;20176;-87
2022/03/15 08:06:03;;;;;;;12.37;9.17;;;;;;;;;;5030153;28;20176;-87
2022/03/15 08:09:08;;;;;;;12.63;8.50;;;;;;;;;;5029316;28;20204;-87
2022/03/15 08:12:13;;;;;;;12.73;8.57;;;;;;;;;;5029638;28;20184;-87
2022/03/15 08:15:17;;;;;;;15.33;9.33;;;;;;;;;;5029543;28;20192;-87
2022/03/15 08:18:21;;;;;;;14.97;8.87;;;;;;;;;;5041183;28;20212;-87
2022/03/15 08:21:26;;;;;;;14.73;9.73;;;;;;;;;;5029952;28;20520;-87
2022/03/15 08:24:30;;;;;;;14.87;10.37;;;;;;;;;;5030085;28;20180;-87
2022/03/15 08:27:34;;;;;;;15.57;10.07;;;;;;;;;;5018590;28;20574;-87
2022/03/15 08:30:38;;;;;;;16.90;11.20;;;;;;;;;;5052393;28;20574;-87
2022/03/15 08:33:44;;;;;;;21.63;12.67;;;;;;;;;;5031930;28;20674;-87
2022/03/15 08:36:48;;;;;;;16.93;12.47;;;;;;;;;;5020908;28;20235;-87
2022/03/15 08:39:52;;;;;;;27.33;13.17;;;;;;;;;;5035118;28;20189;-87
2022/03/15 08:42:57;;;;;;;19.90;13.60;;;;;;;;;;5026556;28;20192;-87
2022/03/15 08:46:00;;;;;;;19.50;12.93;;;;;;;;;;5013041;28;20209;-87
2022/03/15 08:49:04;;;;;;;18.27;12.07;;;;;;;;;;5027495;28;20205;-87
2022/03/15 08:52:10;;;;;;;20.17;12.30;;;;;;;;;;5022468;28;20192;-87
2022/03/15 08:55:15;;;;;;;14.97;11.63;;;;;;;;;;5031097;28;20199;-87
2022/03/15 08:58:20;;;;;;;17.93;11.73;;;;;;;;;;5012690;28;20231;-87
2022/03/15 09:01:24;;;;;;;20.13;13.43;;;;;;;;;;5013858;28;20207;-87
2022/03/15 09:04:28;;;;;;;21.53;13.20;;;;;;;;;;5021367;28;20213;-87
2022/03/15 09:07:33;;;;;;;21.90;12.37;;;;;;;;;;5032307;28;20220;-87
2022/03/15 09:10:40;;;;;;;24.23;13.63;;;;;;;;;;5020514;28;20220;-87
2022/03/15 09:13:44;;;;;;;21.17;13.10;;;;;;;;;;5013375;28;20659;-87
2022/03/15 09:16:48;;;;;;;19.10;12.90;;;;;;;;;;5019329;28;20228;-87
2022/03/15 09:19:53;;;;;;;16.27;12.40;;;;;;;;;;5034547;28;20262;-87
2022/03/15 09:22:59;;;;;;;18.90;12.77;;;;;;;;;;5051462;28;20199;-86
2022/03/15 09:26:03;;;;;;;21.13;12.83;;;;;;;;;;5035490;28;20660;-87
2022/03/15 09:29:09;;;;;;;25.10;12.87;;;;;;;;;;5063269;28;20183;-83
2022/03/15 09:32:13;;;;;;;19.43;12.20;;;;;;;;;;5036746;28;20199;-83
2022/03/15 09:35:18;;;;;;;14.63;11.80;;;;;;;;;;5032312;28;20570;-83
2022/03/15 09:38:23;;;;;;;17.17;12.07;;;;;;;;;;5051164;28;20720;-83
2022/03/15 09:41:27;;;;;;;14.23;10.90;;;;;;;;;;5012125;28;20204;-83
2022/03/15 09:44:38;;;;;;;18.00;12.03;;;;;;;;;;5050944;28;20193;-84
2022/03/15 09:47:45;;;;;;;18.93;11.67;;;;;;;;;;5062737;28;20222;-83
2022/03/15 09:50:50;;;;;;;19.70;16.20;;;;;;;;;;5019043;28;20215;-83
2022/03/15 09:53:56;;;;;;;22.23;15.13;;;;;;;;;;5024954;28;20200;-84
2022/03/15 09:57:02;;;;;;;18.43;13.87;;;;;;;;;;5019802;28;20230;-83
2022/03/15 10:00:10;;;;;;;16.27;10.80;;;;;;;;;;5042157;28;20194;-84
2022/03/15 10:03:17;;;;;;;15.33;10.40;;;;;;;;;;5041707;28;20203;-83
2022/03/15 10:06:23;;;;;;;13.57;10.23;;;;;;;;;;5033098;28;20196;-84
2022/03/15 10:09:28;;;;;;;17.27;12.00;;;;;;;;;;5040048;28;20218;-83
2022/03/15 10:12:33;;;;;;;24.53;18.20;;;;;;;;;;5062453;28;20187;-83
2022/03/15 10:15:37;;;;;;;14.90;11.80;;;;;;;;;;5035689;28;20271;-84
2022/03/15 10:18:55;;;;;;;18.17;14.97;;;;;;;;;;5030863;28;20206;-83
2022/03/15 10:22:00;;;;;;;16.03;11.73;;;;;;;;;;5019146;28;20196;-83
2022/03/15 10:25:05;;;;;;;13.87;10.83;;;;;;;;;;5020105;28;20179;-83
2022/03/15 10:28:09;;;;;;;14.90;10.47;;;;;;;;;;5018934;28;20226;-84
2022/03/15 10:31:15;;;;;;;15.07;11.33;;;;;;;;;;5030275;28;20582;-83
2022/03/15 10:34:21;;;;;;;21.03;10.93;;;;;;;;;;5030221;28;20194;-83
2022/03/15 10:37:32;;;;;;;17.17;11.80;;;;;;;;;;5018805;28;20574;-83
2022/03/15 10:40:38;;;;;;;17.40;11.23;;;;;;;;;;5028254;28;20195;-83
2022/03/15 10:43:42;;;;;;;15.30;11.37;;;;;;;;;;5019113;28;20668;-84
2022/03/15 10:46:58;;;;;;;15.43;11.43;;;;;;;;;;5019080;28;20223;-83
2022/03/15 10:50:04;;;;;;;16.07;11.30;;;;;;;;;;5018239;28;20195;-84
2022/03/15 10:53:08;;;;;;;13.73;11.27;;;;;;;;;;5018740;28;20198;-83
2022/03/15 10:56:19;;;;;;;14.73;11.60;;;;;;;;;;5030053;28;20206;-84
2022/03/15 10:59:24;;;;;;;15.97;12.10;;;;;;;;;;5040020;28;20238;-84
2022/03/15 11:02:30;;;;;;;15.30;11.43;;;;;;;;;;5014544;28;20203;-84
2022/03/15 11:05:35;;;;;;;15.80;11.50;;;;;;;;;;5018858;28;20199;-83
2022/03/15 11:08:39;;;;;;;14.57;11.67;;;;;;;;;;5041157;28;20234;-83
2022/03/15 11:11:47;;;;;;;16.20;12.30;;;;;;;;;;5041247;28;20713;-84
2022/03/15 11:14:54;;;;;;;15.13;11.17;;;;;;;;;;5029275;28;20199;-83
2022/03/15 11:18:02;;;;;;;15.17;11.20;;;;;;;;;;5017789;28;20227;-83
2022/03/15 11:21:07;;;;;;;14.83;10.93;;;;;;;;;;5016856;28;20179;-83
2022/03/15 11:24:16;;;;;;;14.00;10.53;;;;;;;;;;5018714;28;20187;-84
2022/03/15 11:27:21;;;;;;;11.50;8.97;;;;;;;;;;5018596;28;20222;-83
2022/03/15 11:30:26;;;;;;;11.13;9.13;;;;;;;;;;5040923;28;20184;-84
2022/03/15 11:33:31;;;;;;;11.47;8.10;;;;;;;;;;5029979;28;20207;-83
2022/03/15 11:36:35;;;;;;;11.83;9.33;;;;;;;;;;5018948;28;20219;-83
2022/03/15 11:39:40;;;;;;;13.07;9.73;;;;;;;;;;5010280;28;20547;-83
2022/03/15 11:42:47;;;;;;;12.87;8.57;;;;;;;;;;5024822;28;20203;-83
2022/03/15 11:46:00;;;;;;;15.33;9.33;;;;;;;;;;5041445;28;20180;-83
2022/03/15 11:49:55;;;;;;;11.77;8.83;;;;;;;;;;5017479;28;20201;-84
2022/03/15 11:53:06;;;;;;;12.83;9.47;;;;;;;;;;5018639;28;20182;-84
2022/03/15 11:56:35;;;;;;;12.87;9.20;;;;;;;;;;5029856;28;20535;-84
2022/03/15 11:59:50;;;;;;;16.17;9.87;;;;;;;;;;5004389;28;20551;-84
2022/03/15 12:02:59;;;;;;;13.97;9.00;;;;;;;;;;5040258;28;20203;-84
2022/03/15 12:06:15;;;;;;;11.70;7.87;;;;;;;;;;5028905;28;20208;-84
2022/03/15 12:09:24;;;;;;;13.73;7.83;;;;;;;;;;5017920;28;20199;-84
2022/03/15 12:12:32;;;;;;;9.40;6.53;;;;;;;;;;5018685;28;20213;-84
2022/03/15 12:15:38;;;;;;;9.87;6.73;;;;;;;;;;5043845;28;20639;-84
2022/03/15 12:18:45;;;;;;;12.70;7.93;;;;;;;;;;5015496;28;20185;-84
2022/03/15 12:21:55;;;;;;;11.87;6.97;;;;;;;;;;5021954;28;20189;-84
2022/03/15 12:25:09;;;;;;;9.43;6.47;;;;;;;;;;5021331;28;20554;-84
2022/03/15 12:28:25;;;;;;;8.87;6.30;;;;;;;;;;5024368;28;20220;-84
2022/03/15 12:31:43;;;;;;;7.43;6.43;;;;;;;;;;5054837;28;20242;-84
2022/03/15 12:34:51;;;;;;;8.57;6.47;;;;;;;;;;5032485;28;20535;-84
2022/03/15 12:38:10;;;;;;;8.53;6.33;;;;;;;;;;5032154;28;20216;-84
2022/03/15 12:41:24;;;;;;;8.27;6.80;;;;;;;;;;5032490;28;20193;-84
2022/03/15 12:44:49;;;;;;;9.73;7.20;;;;;;;;;;5032097;28;20188;-84
2022/03/15 12:48:03;;;;;;;9.00;6.60;;;;;;;;;;5008500;28;20212;-84
2022/03/15 12:51:17;;;;;;;13.10;7.33;;;;;;;;;;5018859;28;20216;-84
2022/03/15 12:54:27;;;;;;;8.90;6.80;;;;;;;;;;5032375;28;20195;-84
2022/03/15 12:57:32;;;;;;;11.47;7.30;;;;;;;;;;5031910;28;20219;-84
2022/03/15 13:00:41;;;;;;;10.27;7.03;;;;;;;;;;5036333;28;20188;-85
2022/03/15 13:03:46;;;;;;;9.20;6.37;;;;;;;;;;5025420;28;20217;-84
2022/03/15 13:06:50;;;;;;;9.57;6.60;;;;;;;;;;5031850;28;20220;-84
2022/03/15 13:09:58;;;;;;;10.03;6.87;;;;;;;;;;5020178;28;20547;-85
2022/03/15 13:13:04;;;;;;;9.63;7.27;;;;;;;;;;5042795;28;20227;-85
2022/03/15 13:16:09;;;;;;;11.07;7.30;;;;;;;;;;5011714;28;20193;-84
2022/03/15 13:19:25;;;;;;;9.70;7.30;;;;;;;;;;5012456;28;20188;-84
2022/03/15 13:22:29;;;;;;;8.73;6.50;;;;;;;;;;5029941;28;20196;-84
2022/03/15 13:25:38;;;;;;;13.77;6.53;;;;;;;;;;5025884;28;20200;-85
2022/03/15 13:28:45;;;;;;;9.27;7.17;;;;;;;;;;5012191;28;20185;-84
2022/03/15 13:31:49;;;;;;;10.03;7.60;;;;;;;;;;5015060;28;20694;-85
2022/03/15 13:34:56;;;;;;;9.87;7.60;;;;;;;;;;5020128;28;20191;-84
2022/03/15 13:38:00;;;;;;;11.33;7.63;;;;;;;;;;5029102;28;20215;-84
2022/03/15 13:41:06;;;;;;;7.60;6.10;;;;;;;;;;5020856;28;20187;-84
2022/03/15 13:44:15;;;;;;;12.37;7.07;;;;;;;;;;5011954;28;20517;-84
2022/03/15 13:47:23;;;;;;;8.40;7.10;;;;;;;;;;5034259;28;20220;-84
2022/03/15 13:50:27;;;;;;;10.70;7.67;;;;;;;;;;5034339;28;20181;-84
2022/03/15 13:53:31;;;;;;;10.50;8.67;;;;;;;;;;5011716;28;20177;-84
2022/03/15 13:56:51;;;;;;;9.47;7.73;;;;;;;;;;5016494;28;20224;-85
2022/03/15 13:59:56;;;;;;;17.07;7.93;;;;;;;;;;5033375;28;20184;-85
2022/03/15 14:03:07;;;;;;;9.90;8.57;;;;;;;;;;5031158;28;20176;-86
2022/03/15 14:06:12;;;;;;;11.53;8.10;;;;;;;;;;5019812;28;20184;-86
2022/03/15 14:09:26;;;;;;;10.20;7.93;;;;;;;;;;5020132;28;20623;-86
2022/03/15 14:12:32;;;;;;;15.53;8.37;;;;;;;;;;5042429;28;20547;-85
2022/03/15 14:15:36;;;;;;;11.03;8.60;;;;;;;;;;5019773;28;20651;-85
2022/03/15 14:18:55;;;;;;;12.83;8.73;;;;;;;;;;5031638;28;20204;-85
2022/03/15 14:22:04;;;;;;;11.23;8.27;;;;;;;;;;5031214;28;20615;-85
2022/03/15 14:25:10;;;;;;;14.00;9.43;;;;;;;;;;5031207;28;20184;-85
2022/03/15 14:28:17;;;;;;;12.60;9.43;;;;;;;;;;5019435;28;20674;-85
2022/03/15 14:31:30;;;;;;;14.07;9.20;;;;;;;;;;5018781;28;20196;-85
2022/03/15 14:34:36;;;;;;;13.60;9.90;;;;;;;;;;5030780;28;20189;-85
2022/03/15 14:37:42;;;;;;;20.27;9.90;;;;;;;;;;5027683;28;20559;-86
2022/03/15 14:41:18;;;;;;;13.57;9.70;;;;;;;;;;5019715;28;20646;-85
2022/03/15 14:44:22;;;;;;;13.43;10.87;;;;;;;;;;5041644;28;20185;-86
2022/03/15 14:47:27;;;;;;;15.90;10.53;;;;;;;;;;5019310;28;20223;-85
2022/03/15 14:50:31;;;;;;;16.10;10.70;;;;;;;;;;4999771;28;20191;-85
2022/03/15 14:53:37;;;;;;;14.70;10.23;;;;;;;;;;5018817;28;20211;-83
2022/03/15 14:56:41;;;;;;;13.80;10.07;;;;;;;;;;5029989;28;20211;-85
2022/03/15 14:59:46;;;;;;;18.87;9.97;;;;;;;;;;5019955;28;20211;-84
2022/03/15 15:02:52;;;;;;;18.00;9.93;;;;;;;;;;5021241;28;20643;-84
2022/03/15 15:05:58;;;;;;;14.30;9.23;;;;;;;;;;5021077;28;20647;-84
2022/03/15 15:09:06;;;;;;;12.90;9.97;;;;;;;;;;5045225;28;20200;-84
2022/03/15 15:12:13;;;;;;;16.47;10.17;;;;;;;;;;5023340;28;20212;-84
2022/03/15 15:15:19;;;;;;;12.17;10.27;;;;;;;;;;5033517;28;20189;-83
2022/03/15 15:18:24;;;;;;;16.23;9.73;;;;;;;;;;5022105;28;20218;-84
2022/03/15 15:21:28;;;;;;;15.03;9.63;;;;;;;;;;5033759;28;20177;-83
2022/03/15 15:24:33;;;;;;;15.93;9.57;;;;;;;;;;5034086;28;20185;-84
2022/03/15 15:27:38;;;;;;;15.67;9.27;;;;;;;;;;5044622;28;20215;-84
2022/03/15 15:30:45;;;;;;;12.53;9.57;;;;;;;;;;5033870;28;20180;-84
2022/03/15 15:33:49;;;;;;;14.77;9.53;;;;;;;;;;5032070;28;20670;-84
2022/03/15 15:36:53;;;;;;;15.90;10.00;;;;;;;;;;5050851;28;20216;-84
2022/03/15 15:39:59;;;;;;;13.77;9.33;;;;;;;;;;5022037;28;20190;-84
2022/03/15 15:43:05;;;;;;;12.67;9.27;;;;;;;;;;5034743;28;20168;-83
2022/03/15 15:46:16;;;;;;;16.70;9.20;;;;;;;;;;5022641;28;20184;-83
2022/03/15 15:49:22;;;;;;;13.57;8.83;;;;;;;;;;5025575;28;20184;-83
2022/03/15 15:52:27;;;;;;;18.23;9.70;;;;;;;;;;5027519;28;20220;-83
2022/03/15 15:55:31;;;;;;;17.83;9.93;;;;;;;;;;5038256;28;20525;-83
2022/03/15 15:58:35;;;;;;;14.23;9.60;;;;;;;;;;5024972;28;20220;-83
2022/03/15 16:01:40;;;;;;;12.30;9.27;;;;;;;;;;5038265;28;20555;-83
2022/03/15 16:04:44;;;;;;;13.10;9.63;;;;;;;;;;5026465;28;20196;-83
2022/03/15 16:07:51;;;;;;;13.20;8.90;;;;;;;;;;5038059;28;20212;-83
2022/03/15 16:10:55;;;;;;;17.57;9.10;;;;;;;;;;5026249;28;20180;-83
2022/03/15 16:14:00;;;;;;;11.83;8.27;;;;;;;;;;5036319;28;20211;-86
2022/03/15 16:17:05;;;;;;;11.83;7.80;;;;;;;;;;5045090;28;20216;-85
2022/03/15 16:20:10;;;;;;;13.43;7.70;;;;;;;;;;5022581;28;20627;-86
2022/03/15 16:23:14;;;;;;;19.17;8.00;;;;;;;;;;5022823;28;20176;-86
2022/03/15 16:26:19;;;;;;;10.97;7.67;;;;;;;;;;5044955;28;20184;-86
2022/03/15 16:29:23;;;;;;;14.73;8.30;;;;;;;;;;5033530;28;20192;-86
2022/03/15 16:32:30;;;;;;;14.33;8.33;;;;;;;;;;5032679;28;20216;-86
2022/03/15 16:35:36;;;;;;;9.37;7.30;;;;;;;;;;5024572;28;20188;-84
2022/03/15 16:38:40;;;;;;;11.27;7.37;;;;;;;;;;5033859;28;20223;-86
2022/03/15 16:41:43;;;;;;;10.03;7.07;;;;;;;;;;5024089;28;20193;-86
2022/03/15 16:44:49;;;;;;;11.70;7.17;;;;;;;;;;5024463;28;20181;-86
2022/03/15 16:47:53;;;;;;;13.70;7.97;;;;;;;;;;5032905;28;20683;-85
2022/03/15 16:50:57;;;;;;;9.33;7.03;;;;;;;;;;5029965;28;20191;-85
2022/03/15 16:54:03;;;;;;;9.60;7.20;;;;;;;;;;5025252;28;20212;-85
2022/03/15 16:57:08;;;;;;;14.67;9.33;;;;;;;;;;5021060;28;20227;-83
2022/03/15 17:00:12;;;;;;;10.97;7.47;;;;;;;;;;5022579;28;20189;-83
2022/03/15 17:05:40;;;;;;;12.10;8.17;;;;;;;;;;5021855;28;20196;-83
2022/03/15 17:06:40;;;;;;;17.30;10.57;;;;;;;;;;5032610;28;20216;-84
2022/03/15 17:09:46;;;;;;;7.73;4.53;;;;;;;;;;5034131;28;20568;-80
2022/03/15 17:12:51;;;;;;;12.60;6.83;;;;;;;;;;5028717;28;20228;-83
2022/03/15 17:15:57;;;;;;;31.53;18.60;;;;;;;;;;5010051;28;20204;-83
2022/03/15 17:19:10;;;;;;;23.93;13.60;;;;;;;;;;5032495;28;20191;-86
2022/03/15 17:22:22;;;;;;;25.50;14.03;;;;;;;;;;5024755;28;20192;-83
2022/03/15 17:25:29;;;;;;;11.27;7.70;;;;;;;;;;5043211;28;20201;-84
2022/03/15 17:28:39;;;;;;;10.17;6.60;;;;;;;;;;5032109;28;20215;-83
2022/03/15 17:31:47;;;;;;;13.83;8.53;;;;;;;;;;5032427;28;20184;-84
2022/03/15 17:34:53;;;;;;;19.07;11.83;;;;;;;;;;5021237;28;20181;-83
2022/03/15 17:37:57;;;;;;;12.93;8.07;;;;;;;;;;5020834;28;20243;-83
2022/03/15 17:41:01;;;;;;;9.97;7.77;;;;;;;;;;5021062;28;20180;-83
2022/03/15 17:44:05;;;;;;;14.77;9.30;;;;;;;;;;5021499;28;20196;-83
2022/03/15 17:47:12;;;;;;;12.70;9.27;;;;;;;;;;5021896;28;20219;-83
2022/03/15 17:50:16;;;;;;;15.53;9.37;;;;;;;;;;5020843;28;20658;-83
2022/03/15 17:53:21;;;;;;;13.57;9.53;;;;;;;;;;5024195;28;20204;-84
2022/03/15 17:56:33;;;;;;;15.27;10.60;;;;;;;;;;5020026;28;20512;-84
2022/03/15 17:59:40;;;;;;;14.03;9.50;;;;;;;;;;5015959;28;20207;-83
2022/03/15 18:02:46;;;;;;;22.47;14.80;;;;;;;;;;5020590;28;20615;-84
2022/03/15 18:05:53;;;;;;;14.27;11.17;;;;;;;;;;5019874;28;20531;-83
2022/03/15 18:08:57;;;;;;;14.13;10.03;;;;;;;;;;5030876;28;20192;-83
2022/03/15 18:12:03;;;;;;;10.47;6.67;;;;;;;;;;5033088;28;20562;-82
2022/03/15 18:15:07;;;;;;;11.50;8.17;;;;;;;;;;5054854;28;20184;-84
2022/03/15 18:18:12;;;;;;;13.53;8.10;;;;;;;;;;5030882;28;20215;-84
2022/03/15 18:21:17;;;;;;;10.90;7.90;;;;;;;;;;5019620;28;20204;-84
2022/03/15 18:24:20;;;;;;;13.53;8.27;;;;;;;;;;5010700;28;20541;-84